Home PIREPS Pireps

Flight SAB2599

  • Submitted By: Carl Hermans
  • Departure Airport: Bruxelles National (EBBR)
  • Arrival Airport: airport Dusseldorf (EDDL)
  • Aircraft: B737-500 (OO-SAB)
  • Flight Time: 01.03
  • Date Submitted: 16/03/2018
  • Status: Accepted
Flight Details
Gross Revenue:
(123 load / € 0.00 per unit
€ 0.00
Fuel Cost:
(1598 fuel used @ 5.1 / unit)
€ 8,149.80

Additional Log Information:

View Log

Aircraft Used in flight is x737-800 tuifly
15:53 Brakes are On
15:54 Brakes are Released
15:58 Brakes are On
15:58 Brakes are Released
15:58 Brakes are On
15:58 Brakes are Released
16:01 Brakes are On
16:01 Brakes are Released
16:02 Brakes are On
16:02 Brakes are Released
16:02 Brakes are On
16:02 Brakes are Released
16:02 Brakes are On
16:02 Brakes are Released
16:02 Brakes are On
16:02 Brakes are Released
16:03 Brakes are On
16:03 Brakes are Released
16:03 Brakes are On
16:07 Brakes are Released
16:07 You Took off @ 165 Knots and Flaps at Position 3
Departure Weather
EBBR 161450Z 31005KT 280V020 9999 FEW036 12/05 Q1002 NOSIGrn
16:07 Landing Gear Up @ 183 Knots and 210 Feet
16:10 You exceeded maximum bank angle
16:11 Above FL100 you need to switch of the landing lights
16:41 Landing Gear Down @ 174 Knots and 1650 Feet
16:55 You Landed @ 136 Knots and with -600 Vertical Speed
Arrival Weather
EDDL 161520Z 05012KT 7000 RADZ FEW008 BKN012 BKN042 04/03 Q1003 TEMPO 2500 BKN008rn
16:55 Your Landing was very hard
16:55 Brakes are On
16:56 Brussels Bel-Track1.0.1.2

Route Map

Corporate About Us Our Team Vacancies Information Fleet Route Network Rules and Regulations Operations Flight Schedules Event Center Tours Partners IVAO Vatsim Acars dev FSCB

fb Users Online Belgium Michael Bitu, Belgium Jan Roscam,
2 Pilot(s) and 119 Guest(s) Online
CMS by phpVMS - Design by Crazycreatives.com - Copyright © 2018 - Brussels Airlines Virtual